Latest Weather Observations for Horn Island

IDQ60801

Issued at 3:02 pm EST Sunday 25 September 2016 (issued every 30 minutes, with the page automatically refreshed every 10 minutes)

About weather observations | Map of weather stations | Latest weather observations for QLD | Other Formats
Station Details ID: 027058 Name: HORN ISLAND Lat: -10.58 Lon: 142.29 Height: 4.0 m
Data from the previous 72 hours. | See also: Recent months at Horn Island
Date/Time
EST
Temp
°C
App
Temp
°C
Dew
Point
°C
Rel
Hum
%
Delta-T
°C
Wind Press
QNH
hPa
Press
MSL
hPa
Rain since
9am
mm
Dir  Spd
km/h
Gust
km/h
Spd
kts
Gust
kts
25/03:00pm 29.8 28.6 21.5 61 5.6 ESE 30 43 16 23 1007.5 1007.5 0.0
25/02:30pm 29.8 28.4 22.0 63 5.3 ESE 32 41 17 22 1007.6 - 0.0
25/02:00pm 30.3 29.9 23.0 65 5.0 E 30 37 16 20 1007.9 - 0.0
25/01:30pm 30.1 29.3 21.7 60 5.7 ESE 28 37 15 20 1008.3 - 0.0
25/01:00pm 30.4 30.1 21.8 60 5.8 E 26 37 14 20 1008.9 - 0.0
25/12:30pm 30.4 29.6 22.3 62 5.5 E 30 37 16 20 1009.4 - 0.0
25/12:00pm 30.1 30.0 22.3 63 5.3 ESE 26 37 14 20 1009.9 1009.9 0.0
25/11:30am 30.7 31.0 22.3 61 5.7 E 24 33 13 18 1010.3 - 0.0
25/11:00am 29.8 28.7 21.7 61 5.4 E 30 37 16 20 1010.7 - 0.0
25/10:30am 29.6 29.9 22.3 65 4.9 ESE 24 37 13 20 1011.1 - 0.0
25/10:00am 28.9 29.4 22.6 69 4.3 ESE 24 33 13 18 1011.1 - 0.0
25/09:58am 29.0 29.8 23.2 71 4.0 E 24 33 13 18 1011.1 - 0.0
25/09:30am 29.3 30.8 23.0 69 4.3 ESE 20 32 11 17 1011.3 - 0.0
25/09:04am 28.5 30.5 23.0 72 3.8 SE 17 28 9 15 1011.3 - 0.0
25/09:00am 28.8 30.8 23.0 71 4.0 SE 17 24 9 13 1011.3 1011.3 0.0
25/08:30am 27.9 30.0 23.1 75 3.3 SE 17 24 9 13 1011.1 - 0.0
25/08:00am 26.9 29.2 22.7 78 2.8 SE 15 20 8 11 1010.8 - 0.0
25/07:30am 26.0 29.2 23.1 84 2.0 SSE 11 15 6 8 1010.3 - 0.0
25/07:00am 25.0 28.8 23.4 91 1.1 SSE 9 11 5 6 1009.9 - 0.0
25/06:30am 24.5 28.5 23.1 92 0.9 SSE 7 9 4 5 1009.6 - 0.0
25/06:00am 24.5 28.4 22.9 91 1.1 S 7 11 4 6 1009.2 1009.2 0.0
25/05:30am 24.6 28.2 23.0 91 1.1 SSE 9 11 5 6 1008.8 - 0.0
25/05:00am 24.5 28.5 22.7 90 1.2 SE 6 7 3 4 1008.6 - 0.0
25/04:30am 24.6 28.4 22.8 90 1.2 S 7 9 4 5 1008.4 - 0.0
25/04:00am 24.9 28.5 23.0 89 1.3 S 9 15 5 8 1008.1 - 0.0
25/03:30am 25.2 27.9 22.9 87 1.6 S 13 20 7 11 1008.2 - 0.0
25/03:00am 25.7 28.8 22.8 84 2.0 SSE 11 15 6 8 1008.4 1008.4 0.0
25/02:30am 25.7 28.8 22.8 84 2.0 SE 11 13 6 7 1008.4 - 0.0
25/02:00am 25.8 28.8 22.7 83 2.1 SE 11 15 6 8 1008.7 - 0.0
25/01:30am 26.2 29.3 22.9 82 2.2 SE 11 17 6 9 1008.7 - 0.0
25/01:00am 26.0 29.0 22.7 82 2.2 ESE 11 15 6 8 1008.9 - 0.0
25/12:30am 26.1 28.8 22.8 82 2.2 ESE 13 20 7 11 1009.2 - 0.0
25/12:00am 26.2 28.8 22.7 81 2.4 ESE 13 19 7 10 1009.7 1009.7 0.0
 
Date/Time
EST
Temp
°C
App
Temp
°C
Dew
Point
°C
Rel
Hum
%
Delta-T
°C
Wind Press
QNH
hPa
Press
MSL
hPa
Rain since
9am
mm
Dir  Spd
km/h
Gust
km/h
Spd
kts
Gust
kts
24/11:30pm 26.1 28.2 22.4 80 2.5 ESE 15 22 8 12 1009.8 - 0.0
24/11:00pm 26.1 27.7 22.2 79 2.6 E 17 24 9 13 1010.0 - 0.0
24/10:30pm 26.1 28.0 22.0 78 2.7 E 15 20 8 11 1010.1 - 0.0
24/10:00pm 26.3 27.3 22.2 78 2.8 ESE 20 30 11 16 1010.0 - 0.0
24/09:30pm 26.3 27.3 21.7 76 3.1 ESE 19 24 10 13 1009.9 - 0.0
24/09:00pm 26.4 26.8 21.8 76 3.1 ESE 22 28 12 15 1009.7 1009.7 0.0
24/08:30pm 26.4 27.5 22.0 77 2.9 ESE 19 24 10 13 1009.5 - 0.0
24/08:00pm 26.4 27.8 21.8 76 3.1 ESE 17 24 9 13 1009.3 - 0.0
24/07:30pm 26.6 28.1 22.0 76 3.1 ESE 17 24 9 13 1008.9 - 0.0
24/07:00pm 26.7 27.4 21.5 73 3.5 E 20 28 11 15 1008.5 - 0.0
24/06:30pm 26.7 27.0 21.5 73 3.5 E 22 28 12 15 1008.1 - 0.0
24/06:00pm 26.9 27.5 21.4 72 3.7 E 20 26 11 14 1007.9 1007.9 0.0
24/05:30pm 27.1 27.4 21.6 72 3.7 E 22 30 12 16 1007.5 - 0.0
24/05:00pm 27.5 28.2 21.5 70 4.0 E 20 30 11 16 1007.3 - 0.0
24/04:30pm 27.6 27.2 20.9 67 4.4 ESE 24 30 13 16 1007.3 - 0.0
24/04:00pm 28.4 28.8 20.9 64 5.0 E 20 28 11 15 1007.2 - 0.0
24/03:30pm 28.7 28.3 21.0 63 5.1 E 24 30 13 16 1007.5 - 0.0
24/03:00pm 29.1 29.0 20.8 61 5.5 E 22 30 12 16 1007.8 1007.8 0.0
24/02:30pm 29.0 28.0 20.4 59 5.7 E 26 35 14 19 1008.1 - 0.0
24/02:00pm 29.8 29.0 20.9 59 5.9 E 26 35 14 19 1008.4 - 0.0
24/01:30pm 29.9 29.0 20.7 57 6.1 E 26 37 14 20 1008.8 - 0.0
24/01:00pm 29.3 28.0 20.7 59 5.7 E 28 35 15 19 1009.4 - 0.0
24/12:30pm 29.8 28.9 20.6 57 6.1 E 26 39 14 21 1009.8 - 0.0
24/12:00pm 29.3 28.2 20.2 58 6.0 E 26 35 14 19 1010.1 1010.1 0.0
24/11:30am 29.3 28.4 20.7 59 5.7 E 26 33 14 18 1010.6 - 0.0
24/11:00am 29.4 28.7 21.1 61 5.5 E 26 33 14 18 1010.9 - 0.0
24/10:30am 28.9 28.5 20.9 62 5.3 E 24 32 13 17 1011.1 - 0.0
24/10:00am 28.6 28.8 21.4 65 4.8 E 22 30 12 16 1011.4 - 0.0
24/09:30am 28.9 30.2 21.7 65 4.8 E 17 26 9 14 1011.5 - 0.0
24/09:00am 28.0 29.9 22.0 70 4.0 ESE 15 26 8 14 1011.4 1011.4 0.0
24/08:30am 26.9 29.3 22.3 76 3.1 SE 13 19 7 10 1011.3 - 0.0
24/08:00am 27.1 30.0 22.5 76 3.1 SE 11 19 6 10 1011.0 - 0.0
24/07:30am 26.2 29.1 22.5 80 2.5 SE 11 15 6 8 1010.7 - 0.0
24/07:00am 25.4 28.6 22.3 83 2.1 SE 9 13 5 7 1010.2 - 0.0
24/06:30am 25.3 28.8 22.2 83 2.1 SSE 7 9 4 5 1009.9 - 0.0
24/06:00am 25.4 28.5 22.1 82 2.2 SSE 9 11 5 6 1009.5 1009.5 0.0
24/05:30am 25.8 29.4 22.3 81 2.3 SE 7 11 4 6 1009.2 - 0.0
24/05:00am 25.8 28.5 22.1 80 2.5 ESE 11 15 6 8 1008.9 - 0.0
24/04:30am 25.8 28.0 21.9 79 2.6 E 13 19 7 10 1008.8 - 0.0
24/04:00am 26.0 28.8 22.3 80 2.5 E 11 15 6 8 1008.8 - 0.0
24/03:30am 26.0 28.8 22.3 80 2.5 E 11 15 6 8 1008.9 - 0.0
24/03:00am 26.0 27.9 22.1 79 2.6 E 15 19 8 10 1009.0 1009.0 0.0
24/02:30am 26.0 28.4 22.3 80 2.5 E 13 19 7 10 1009.0 - 0.0
24/02:00am 26.2 28.3 22.5 80 2.5 E 15 20 8 11 1009.3 - 0.0
24/01:30am 26.3 28.0 22.4 79 2.6 E 17 22 9 12 1009.5 - 0.0
24/01:00am 26.3 28.5 22.6 80 2.5 E 15 20 8 11 1009.7 - 0.0
24/12:30am 26.4 28.8 22.9 81 2.4 E 15 20 8 11 1010.0 - 0.0
24/12:00am 26.5 28.9 23.0 81 2.4 E 15 20 8 11 1010.3 1010.3 0.0
 
Date/Time
EST
Temp
°C
App
Temp
°C
Dew
Point
°C
Rel
Hum
%
Delta-T
°C
Wind Press
QNH
hPa
Press
MSL
hPa
Rain since
9am
mm
Dir  Spd
km/h
Gust
km/h
Spd
kts
Gust
kts
23/11:30pm 26.5 28.4 22.8 80 2.5 E 17 24 9 13 1010.3 - 0.0
23/11:00pm 26.7 28.9 23.2 81 2.4 E 17 24 9 13 1010.5 - 0.0
23/10:30pm 26.9 29.4 23.2 80 2.5 ESE 15 20 8 11 1010.7 - 0.0
23/10:00pm 26.8 28.2 22.6 78 2.8 ESE 19 24 10 13 1010.6 - 0.0
23/09:30pm 26.9 28.5 23.2 80 2.5 ESE 20 28 11 15 1010.4 - 0.0
23/09:00pm 26.8 28.5 23.1 80 2.5 E 19 26 10 14 1010.1 1010.1 0.0
23/08:30pm 26.7 28.6 22.8 79 2.6 E 17 26 9 14 1009.7 - 0.0
23/08:00pm 26.8 29.1 22.8 79 2.7 ESE 15 20 8 11 1009.5 - 0.0
23/07:30pm 26.8 28.7 22.8 79 2.7 ESE 17 24 9 13 1009.3 - 0.0
23/07:00pm 26.9 28.3 22.5 77 3.0 ESE 19 24 10 13 1008.8 - 0.0
23/06:30pm 26.9 27.7 22.5 77 3.0 E 22 30 12 16 1008.2 - 0.0
23/06:00pm 27.3 27.8 22.7 76 3.1 E 24 30 13 16 1007.8 1007.8 0.0
23/05:30pm 28.0 28.7 22.9 74 3.5 E 24 33 13 18 1007.5 - 0.0
23/05:00pm 28.5 29.0 22.7 71 3.9 E 24 33 13 18 1007.2 - 0.0
23/04:30pm 28.5 28.3 22.0 68 4.4 E 26 35 14 19 1007.1 - 0.0
23/04:00pm 29.0 29.4 22.5 68 4.4 E 24 33 13 18 1007.0 - 0.0
23/03:30pm 28.7 29.2 22.7 70 4.1 E 24 32 13 17 1007.1 - 0.0
23/03:00pm 29.0 29.5 22.7 69 4.3 E 24 30 13 16 1007.5 1007.5 0.0
23/02:30pm 29.6 31.1 23.1 68 4.5 ENE 20 30 11 16 1008.1 - 0.0
23/02:00pm 29.1 29.7 22.8 69 4.3 E 24 32 13 17 1008.6 - 0.0
23/01:30pm 29.4 29.5 22.6 67 4.6 E 26 37 14 20 1009.2 - 0.0
23/01:00pm 29.4 29.6 22.1 65 4.9 E 24 32 13 17 1009.6 - 0.0
23/12:30pm 29.4 28.9 22.1 65 4.9 E 28 35 15 19 1010.2 - 0.0
23/12:00pm 29.7 29.8 21.9 63 5.3 E 24 32 13 17 1010.7 1010.7 0.0
23/11:30am 29.9 30.6 22.3 63 5.2 E 22 35 12 19 1011.4 - 0.0
23/11:00am 29.3 30.1 22.5 67 4.6 E 22 32 12 17 1011.8 - 0.0
23/10:30am 29.0 29.3 21.5 64 5.0 E 22 30 12 16 1012.1 - 0.0
23/10:00am 29.4 30.2 22.4 66 4.7 E 22 30 12 16 1012.2 - 0.0
23/09:30am 28.8 29.0 22.1 67 4.5 E 24 32 13 17 1012.1 - 0.0
23/09:00am 27.9 29.5 22.8 74 3.5 ESE 19 26 10 14 1012.0 1012.0 0.0
23/08:30am 27.7 29.9 22.6 74 3.5 ESE 15 24 8 13 1012.0 - 0.0
23/08:00am 26.7 30.4 23.2 81 2.4 SE 9 15 5 8 1011.7 - 0.0
23/07:30am 26.3 29.9 23.0 82 2.2 SE 9 13 5 7 1011.3 - 0.0
23/07:00am 25.5 29.7 23.4 88 1.4 SE 7 11 4 6 1010.9 - 0.0
23/06:30am 24.9 28.9 23.1 90 1.2 SSE 7 9 4 5 1010.7 - 0.0
23/06:00am 25.0 29.2 23.2 90 1.2 SSE 6 7 3 4 1010.3 1010.3 0.0
23/05:30am 25.3 29.5 23.2 88 1.4 SE 6 9 3 5 1010.0 - 0.0
23/05:00am 25.5 28.5 22.6 84 2.0 SSE 11 13 6 7 1009.6 - 0.0
23/04:30am 25.6 28.5 22.5 83 2.1 SE 11 15 6 8 1009.7 - 0.0
23/04:00am 25.9 29.0 22.8 83 2.1 SSE 11 17 6 9 1009.6 - 0.0
23/03:30am 26.0 28.3 22.7 82 2.2 SE 15 19 8 10 1009.6 - 0.0
23/03:05am 26.2 28.6 22.9 82 2.2 ESE 15 20 8 11 1009.7 - 0.0
23/03:00am 26.2 28.5 22.7 81 2.4 ESE 15 19 8 10 1009.7 1009.7 0.0
23/02:46am 26.4 29.3 23.1 82 2.2 ESE 13 19 7 10 1009.8 - 0.0
23/02:30am 26.4 28.8 22.9 81 2.4 ESE 15 22 8 12 1010.1 - 0.0
23/02:10am 26.3 28.2 22.8 81 2.4 E 17 24 9 13 1010.1 - 0.0
23/02:00am 26.3 27.7 22.6 80 2.5 E 19 26 10 14 1010.3 - 0.0
23/01:31am 26.4 28.9 23.1 82 2.2 ESE 15 22 8 12 1010.6 - 0.0
23/01:30am 26.4 28.9 23.1 82 2.2 ESE 15 22 8 12 1010.6 - 0.0
23/01:00am 26.4 28.1 23.1 82 2.2 ESE 19 24 10 13 1010.9 - 0.0
23/12:30am 26.5 28.2 23.0 81 2.4 ESE 19 24 10 13 1011.2 - 0.0
23/12:00am 26.5 28.9 23.0 81 2.4 ESE 15 20 8 11 1011.3 1011.3 0.0
 
Date/Time
EST
Temp
°C
App
Temp
°C
Dew
Point
°C
Rel
Hum
%
Delta-T
°C
Wind Press
QNH
hPa
Press
MSL
hPa
Rain since
9am
mm
Dir  Spd
km/h
Gust
km/h
Spd
kts
Gust
kts
22/11:30pm 26.5 28.1 22.8 80 2.5 ESE 19 26 10 14 1011.5 - 0.0
22/11:00pm 26.6 28.7 23.1 81 2.4 ESE 17 20 9 11 1011.7 - 0.0
22/10:30pm 26.8 28.3 23.1 80 2.5 ESE 20 30 11 16 1011.6 - 0.0
22/10:27pm 26.7 27.8 23.0 80 2.5 ESE 22 30 12 16 1011.6 - 0.0
22/10:00pm 26.6 28.1 23.1 81 2.4 ESE 20 26 11 14 1011.4 - 0.0
22/09:30pm 26.6 27.7 23.1 81 2.4 ESE 22 28 12 15 1011.2 - 0.0
22/09:00pm 26.6 27.7 23.1 81 2.4 ESE 22 30 12 16 1011.1 1011.1 0.0
22/08:30pm 26.7 27.9 23.2 81 2.4 ESE 22 30 12 16 1011.1 - 0.0
22/08:00pm 26.8 28.2 23.5 82 2.3 ESE 22 28 12 15 1010.8 - 0.0
22/07:53pm 26.7 27.9 23.2 81 2.4 ESE 22 32 12 17 1010.8 - 0.0
22/07:30pm 26.8 28.2 23.5 82 2.3 ESE 22 30 12 16 1010.5 - 0.0
22/07:00pm 26.8 28.2 23.5 82 2.3 E 22 28 12 15 1010.2 - 0.0
22/06:30pm 26.9 28.5 23.2 80 2.5 E 20 33 11 18 1009.8 - 0.0
22/06:00pm 27.4 27.7 23.0 77 3.0 ESE 26 35 14 19 1009.3 1009.3 0.0
22/05:30pm 28.1 28.5 23.2 74 3.3 E 26 37 14 20 1008.9 - 0.0
22/05:00pm 28.4 28.1 22.6 71 3.9 E 28 39 15 21 1008.8 - 0.0
22/04:30pm 29.1 29.1 23.1 70 4.1 E 28 35 15 19 1008.7 - 0.0
22/04:00pm 29.2 29.4 23.4 71 4.0 E 28 39 15 21 1008.9 - 0.0
22/03:30pm 29.3 28.6 22.5 67 4.6 E 30 39 16 21 1009.0 - 0.0

Other Formats:

Comma delimited format used in spreadsheet applications
http://www.bom.gov.au/fwo/IDQ60801/IDQ60801.94174.axf

JavaScript Object Notation format (JSON) in row-major order
http://www.bom.gov.au/fwo/IDQ60801/IDQ60801.94174.json